sensor_id;sensor_type;location;lat;lon;timestamp;temperature;humidity
30983;DHT22;17660;52.578;13.288;2023-05-16T00:01:07;16.70;96.90
30983;DHT22;17660;52.578;13.288;2023-05-16T00:03:34;16.60;97.00
30983;DHT22;17660;52.578;13.288;2023-05-16T00:06:03;16.60;96.90
30983;DHT22;17660;52.578;13.288;2023-05-16T00:08:30;16.60;97.10
30983;DHT22;17660;52.578;13.288;2023-05-16T00:10:57;16.40;97.30
30983;DHT22;17660;52.578;13.288;2023-05-16T00:13:23;16.40;97.50
30983;DHT22;17660;52.578;13.288;2023-05-16T00:15:51;16.20;97.90
30983;DHT22;17660;52.578;13.288;2023-05-16T00:18:19;16.20;98.00
30983;DHT22;17660;52.578;13.288;2023-05-16T00:20:48;16.10;98.40
30983;DHT22;17660;52.578;13.288;2023-05-16T00:23:14;16.20;98.20
30983;DHT22;17660;52.578;13.288;2023-05-16T00:25:42;16.10;98.40
30983;DHT22;17660;52.578;13.288;2023-05-16T00:28:08;16.10;98.50
30983;DHT22;17660;52.578;13.288;2023-05-16T00:30:35;16.10;98.60
30983;DHT22;17660;52.578;13.288;2023-05-16T00:33:02;16.10;98.70
30983;DHT22;17660;52.578;13.288;2023-05-16T00:35:28;16.00;98.70
30983;DHT22;17660;52.578;13.288;2023-05-16T00:37:55;16.00;98.90
30983;DHT22;17660;52.578;13.288;2023-05-16T00:40:22;16.00;98.80
30983;DHT22;17660;52.578;13.288;2023-05-16T00:42:49;16.10;98.80
30983;DHT22;17660;52.578;13.288;2023-05-16T00:45:15;16.10;98.70
30983;DHT22;17660;52.578;13.288;2023-05-16T00:47:42;16.00;98.90
30983;DHT22;17660;52.578;13.288;2023-05-16T00:50:09;15.90;99.00
30983;DHT22;17660;52.578;13.288;2023-05-16T00:52:36;15.90;99.20
30983;DHT22;17660;52.578;13.288;2023-05-16T00:55:03;16.00;99.40
30983;DHT22;17660;52.578;13.288;2023-05-16T00:57:30;15.90;99.20
30983;DHT22;17660;52.578;13.288;2023-05-16T00:59:56;15.90;99.30
30983;DHT22;17660;52.578;13.288;2023-05-16T01:02:23;15.80;99.60
30983;DHT22;17660;52.578;13.288;2023-05-16T01:04:53;15.50;99.90
30983;DHT22;17660;52.578;13.288;2023-05-16T01:07:20;15.50;99.90
30983;DHT22;17660;52.578;13.288;2023-05-16T01:09:47;15.50;99.90
30983;DHT22;17660;52.578;13.288;2023-05-16T01:15:01;15.60;99.90
30983;DHT22;17660;52.578;13.288;2023-05-16T01:20:08;15.40;99.90
30983;DHT22;17660;52.578;13.288;2023-05-16T01:27:41;15.30;99.90
30983;DHT22;17660;52.578;13.288;2023-05-16T01:30:13;15.30;99.90
30983;DHT22;17660;52.578;13.288;2023-05-16T01:32:40;15.20;99.90
30983;DHT22;17660;52.578;13.288;2023-05-16T01:35:07;15.10;99.90
30983;DHT22;17660;52.578;13.288;2023-05-16T01:37:35;15.00;99.90
30983;DHT22;17660;52.578;13.288;2023-05-16T01:40:08;15.10;99.90
30983;DHT22;17660;52.578;13.288;2023-05-16T01:42:38;15.20;99.90
30983;DHT22;17660;52.578;13.288;2023-05-16T01:47:35;14.80;99.90
30983;DHT22;17660;52.578;13.288;2023-05-16T01:52:31;14.70;99.90
30983;DHT22;17660;52.578;13.288;2023-05-16T01:55:00;14.70;99.90
30983;DHT22;17660;52.578;13.288;2023-05-16T01:57:27;14.80;99.90
30983;DHT22;17660;52.578;13.288;2023-05-16T01:59:54;14.70;99.90
30983;DHT22;17660;52.578;13.288;2023-05-16T02:02:21;14.80;99.90
30983;DHT22;17660;52.578;13.288;2023-05-16T02:04:48;14.70;99.90
30983;DHT22;17660;52.578;13.288;2023-05-16T02:07:15;14.70;99.90
30983;DHT22;17660;52.578;13.288;2023-05-16T02:09:42;14.70;99.90
30983;DHT22;17660;52.578;13.288;2023-05-16T02:12:09;14.50;99.90
30983;DHT22;17660;52.578;13.288;2023-05-16T02:14:35;14.60;99.90
30983;DHT22;17660;52.578;13.288;2023-05-16T02:17:02;14.60;99.90
30983;DHT22;17660;52.578;13.288;2023-05-16T02:19:29;14.60;99.90
30983;DHT22;17660;52.578;13.288;2023-05-16T02:21:56;14.60;99.90
30983;DHT22;17660;52.578;13.288;2023-05-16T02:24:22;14.50;99.90
30983;DHT22;17660;52.578;13.288;2023-05-16T02:26:49;14.40;99.90
30983;DHT22;17660;52.578;13.288;2023-05-16T02:29:15;14.40;99.90
30983;DHT22;17660;52.578;13.288;2023-05-16T02:31:42;14.40;99.90
30983;DHT22;17660;52.578;13.288;2023-05-16T02:34:09;14.40;99.90
30983;DHT22;17660;52.578;13.288;2023-05-16T02:36:36;14.40;99.90
30983;DHT22;17660;52.578;13.288;2023-05-16T02:39:03;14.30;99.80
30983;DHT22;17660;52.578;13.288;2023-05-16T02:41:29;14.30;99.90
30983;DHT22;17660;52.578;13.288;2023-05-16T02:43:57;14.30;99.90
30983;DHT22;17660;52.578;13.288;2023-05-16T02:48:50;14.20;99.90
30983;DHT22;17660;52.578;13.288;2023-05-16T02:51:19;14.10;99.90
30983;DHT22;17660;52.578;13.288;2023-05-16T02:53:46;14.00;99.90
30983;DHT22;17660;52.578;13.288;2023-05-16T02:56:13;14.00;99.90
30983;DHT22;17660;52.578;13.288;2023-05-16T02:58:39;14.00;99.90
30983;DHT22;17660;52.578;13.288;2023-05-16T03:01:07;13.90;99.90
30983;DHT22;17660;52.578;13.288;2023-05-16T03:03:35;14.00;99.90
30983;DHT22;17660;52.578;13.288;2023-05-16T03:06:02;14.00;99.90
30983;DHT22;17660;52.578;13.288;2023-05-16T03:08:28;14.00;99.90
30983;DHT22;17660;52.578;13.288;2023-05-16T03:10:55;13.90;99.90
30983;DHT22;17660;52.578;13.288;2023-05-16T03:13:22;13.80;99.90
30983;DHT22;17660;52.578;13.288;2023-05-16T03:15:48;14.00;99.90
30983;DHT22;17660;52.578;13.288;2023-05-16T03:18:15;14.00;99.90
30983;DHT22;17660;52.578;13.288;2023-05-16T03:20:42;13.90;99.90
30983;DHT22;17660;52.578;13.288;2023-05-16T03:23:08;14.00;99.90
30983;DHT22;17660;52.578;13.288;2023-05-16T03:25:35;13.90;99.90
30983;DHT22;17660;52.578;13.288;2023-05-16T03:28:06;13.90;99.90
30983;DHT22;17660;52.578;13.288;2023-05-16T03:30:35;14.00;99.90
30983;DHT22;17660;52.578;13.288;2023-05-16T03:33:02;14.10;99.90
30983;DHT22;17660;52.578;13.288;2023-05-16T03:35:32;14.00;99.90
30983;DHT22;17660;52.578;13.288;2023-05-16T03:38:00;14.20;99.90
30983;DHT22;17660;52.578;13.288;2023-05-16T03:40:26;14.10;99.90
30983;DHT22;17660;52.578;13.288;2023-05-16T03:42:53;13.90;99.90
30983;DHT22;17660;52.578;13.288;2023-05-16T03:45:20;13.90;99.90
30983;DHT22;17660;52.578;13.288;2023-05-16T03:47:49;13.90;99.90
30983;DHT22;17660;52.578;13.288;2023-05-16T03:50:16;14.00;99.90
30983;DHT22;17660;52.578;13.288;2023-05-16T03:52:43;14.00;99.90
30983;DHT22;17660;52.578;13.288;2023-05-16T03:55:09;14.00;99.90
30983;DHT22;17660;52.578;13.288;2023-05-16T03:57:40;14.10;99.90
30983;DHT22;17660;52.578;13.288;2023-05-16T04:00:08;14.20;99.90
30983;DHT22;17660;52.578;13.288;2023-05-16T04:02:36;14.20;99.90
30983;DHT22;17660;52.578;13.288;2023-05-16T04:05:03;14.10;99.90
30983;DHT22;17660;52.578;13.288;2023-05-16T04:07:30;14.20;99.90
30983;DHT22;17660;52.578;13.288;2023-05-16T04:09:56;14.10;99.90
30983;DHT22;17660;52.578;13.288;2023-05-16T04:12:24;14.10;99.90
30983;DHT22;17660;52.578;13.288;2023-05-16T04:14:50;14.10;99.90
30983;DHT22;17660;52.578;13.288;2023-05-16T04:17:17;14.10;99.90
30983;DHT22;17660;52.578;13.288;2023-05-16T04:19:43;14.20;99.90
30983;DHT22;17660;52.578;13.288;2023-05-16T04:22:10;14.10;99.90
30983;DHT22;17660;52.578;13.288;2023-05-16T04:24:37;14.10;99.90
30983;DHT22;17660;52.578;13.288;2023-05-16T04:27:04;14.10;99.90
30983;DHT22;17660;52.578;13.288;2023-05-16T04:29:30;14.20;99.90
30983;DHT22;17660;52.578;13.288;2023-05-16T04:31:57;14.20;99.90
30983;DHT22;17660;52.578;13.288;2023-05-16T04:34:24;14.10;99.90
30983;DHT22;17660;52.578;13.288;2023-05-16T04:36:53;14.00;99.90
30983;DHT22;17660;52.578;13.288;2023-05-16T04:39:20;13.90;99.90
30983;DHT22;17660;52.578;13.288;2023-05-16T04:41:47;13.80;99.90
30983;DHT22;17660;52.578;13.288;2023-05-16T04:44:14;13.70;99.90
30983;DHT22;17660;52.578;13.288;2023-05-16T04:46:41;13.70;99.90
30983;DHT22;17660;52.578;13.288;2023-05-16T04:49:07;13.70;99.90
30983;DHT22;17660;52.578;13.288;2023-05-16T04:51:34;13.70;99.90
30983;DHT22;17660;52.578;13.288;2023-05-16T04:54:01;13.70;99.90
30983;DHT22;17660;52.578;13.288;2023-05-16T04:56:27;13.70;99.90
30983;DHT22;17660;52.578;13.288;2023-05-16T04:58:54;13.60;99.90
30983;DHT22;17660;52.578;13.288;2023-05-16T05:01:21;13.40;99.90
30983;DHT22;17660;52.578;13.288;2023-05-16T05:03:47;13.40;99.90
30983;DHT22;17660;52.578;13.288;2023-05-16T05:06:14;13.50;99.90
30983;DHT22;17660;52.578;13.288;2023-05-16T05:08:41;13.60;99.90
30983;DHT22;17660;52.578;13.288;2023-05-16T05:11:08;13.70;99.90
30983;DHT22;17660;52.578;13.288;2023-05-16T05:13:35;13.70;99.90
30983;DHT22;17660;52.578;13.288;2023-05-16T05:16:01;13.70;99.90
30983;DHT22;17660;52.578;13.288;2023-05-16T05:18:30;13.90;99.90
30983;DHT22;17660;52.578;13.288;2023-05-16T05:20:57;13.70;99.90
30983;DHT22;17660;52.578;13.288;2023-05-16T05:23:24;13.60;99.90
30983;DHT22;17660;52.578;13.288;2023-05-16T05:25:51;13.80;99.90
30983;DHT22;17660;52.578;13.288;2023-05-16T05:28:17;13.80;99.70
30983;DHT22;17660;52.578;13.288;2023-05-16T05:30:44;13.90;99.40
30983;DHT22;17660;52.578;13.288;2023-05-16T05:33:13;14.00;99.30
30983;DHT22;17660;52.578;13.288;2023-05-16T05:35:39;14.00;99.30
30983;DHT22;17660;52.578;13.288;2023-05-16T05:38:06;14.00;99.30
30983;DHT22;17660;52.578;13.288;2023-05-16T05:40:33;13.80;99.50
30983;DHT22;17660;52.578;13.288;2023-05-16T05:42:59;13.80;99.60
30983;DHT22;17660;52.578;13.288;2023-05-16T05:45:26;13.90;99.60
30983;DHT22;17660;52.578;13.288;2023-05-16T05:47:53;14.00;99.30
30983;DHT22;17660;52.578;13.288;2023-05-16T05:50:20;13.90;99.40
30983;DHT22;17660;52.578;13.288;2023-05-16T05:52:47;13.80;99.50
30983;DHT22;17660;52.578;13.288;2023-05-16T05:55:14;13.70;99.40
30983;DHT22;17660;52.578;13.288;2023-05-16T05:57:40;13.70;99.60
30983;DHT22;17660;52.578;13.288;2023-05-16T06:00:07;13.70;99.10
30983;DHT22;17660;52.578;13.288;2023-05-16T06:02:35;13.90;99.00
30983;DHT22;17660;52.578;13.288;2023-05-16T06:05:02;13.60;98.90
30983;DHT22;17660;52.578;13.288;2023-05-16T06:07:29;13.60;99.20
30983;DHT22;17660;52.578;13.288;2023-05-16T06:09:56;13.80;99.00
30983;DHT22;17660;52.578;13.288;2023-05-16T06:12:23;13.90;98.70
30983;DHT22;17660;52.578;13.288;2023-05-16T06:14:49;14.00;98.60
30983;DHT22;17660;52.578;13.288;2023-05-16T06:17:16;13.90;98.40
30983;DHT22;17660;52.578;13.288;2023-05-16T06:19:43;14.00;98.70
30983;DHT22;17660;52.578;13.288;2023-05-16T06:22:10;14.00;98.20
30983;DHT22;17660;52.578;13.288;2023-05-16T06:24:37;14.10;98.10
30983;DHT22;17660;52.578;13.288;2023-05-16T06:27:03;14.20;98.30
30983;DHT22;17660;52.578;13.288;2023-05-16T06:29:30;14.10;98.20
30983;DHT22;17660;52.578;13.288;2023-05-16T06:31:57;14.30;97.80
30983;DHT22;17660;52.578;13.288;2023-05-16T06:34:23;14.30;97.90
30983;DHT22;17660;52.578;13.288;2023-05-16T06:36:53;14.30;97.60
30983;DHT22;17660;52.578;13.288;2023-05-16T06:39:20;14.30;97.50
30983;DHT22;17660;52.578;13.288;2023-05-16T06:41:47;14.10;97.90
30983;DHT22;17660;52.578;13.288;2023-05-16T06:44:14;14.10;98.30
30983;DHT22;17660;52.578;13.288;2023-05-16T06:46:41;14.00;97.90
30983;DHT22;17660;52.578;13.288;2023-05-16T06:49:07;14.10;97.90
30983;DHT22;17660;52.578;13.288;2023-05-16T06:51:34;14.10;97.70
30983;DHT22;17660;52.578;13.288;2023-05-16T06:54:01;14.00;97.80
30983;DHT22;17660;52.578;13.288;2023-05-16T06:56:29;14.10;97.80
30983;DHT22;17660;52.578;13.288;2023-05-16T06:58:57;14.00;97.90
30983;DHT22;17660;52.578;13.288;2023-05-16T07:01:23;13.80;98.30
30983;DHT22;17660;52.578;13.288;2023-05-16T07:03:50;13.70;98.30
30983;DHT22;17660;52.578;13.288;2023-05-16T07:06:17;13.80;98.40
30983;DHT22;17660;52.578;13.288;2023-05-16T07:08:44;13.70;98.70
30983;DHT22;17660;52.578;13.288;2023-05-16T07:11:11;13.90;98.70
30983;DHT22;17660;52.578;13.288;2023-05-16T07:13:38;13.90;98.40
30983;DHT22;17660;52.578;13.288;2023-05-16T07:16:04;14.10;98.40
30983;DHT22;17660;52.578;13.288;2023-05-16T07:18:33;13.90;98.10
30983;DHT22;17660;52.578;13.288;2023-05-16T07:20:59;14.00;97.90
30983;DHT22;17660;52.578;13.288;2023-05-16T07:23:26;14.30;97.50
30983;DHT22;17660;52.578;13.288;2023-05-16T07:25:53;14.60;96.90
30983;DHT22;17660;52.578;13.288;2023-05-16T07:28:20;14.40;96.70
30983;DHT22;17660;52.578;13.288;2023-05-16T07:30:47;14.30;97.30
30983;DHT22;17660;52.578;13.288;2023-05-16T07:33:14;14.40;96.80
30983;DHT22;17660;52.578;13.288;2023-05-16T07:35:40;14.50;96.70
30983;DHT22;17660;52.578;13.288;2023-05-16T07:38:07;14.60;96.50
30983;DHT22;17660;52.578;13.288;2023-05-16T07:40:34;14.80;96.30
30983;DHT22;17660;52.578;13.288;2023-05-16T07:43:01;14.80;96.30
30983;DHT22;17660;52.578;13.288;2023-05-16T07:45:28;14.80;96.30
30983;DHT22;17660;52.578;13.288;2023-05-16T07:47:55;14.90;96.30
30983;DHT22;17660;52.578;13.288;2023-05-16T07:50:22;14.80;95.60
30983;DHT22;17660;52.578;13.288;2023-05-16T07:52:49;14.90;95.90
30983;DHT22;17660;52.578;13.288;2023-05-16T07:55:16;14.90;95.70
30983;DHT22;17660;52.578;13.288;2023-05-16T07:57:42;14.70;96.00
30983;DHT22;17660;52.578;13.288;2023-05-16T08:00:09;14.60;96.10
30983;DHT22;17660;52.578;13.288;2023-05-16T08:02:36;14.70;95.90
30983;DHT22;17660;52.578;13.288;2023-05-16T08:05:03;14.60;96.00
30983;DHT22;17660;52.578;13.288;2023-05-16T08:07:30;14.80;96.00
30983;DHT22;17660;52.578;13.288;2023-05-16T08:09:56;14.70;96.20
30983;DHT22;17660;52.578;13.288;2023-05-16T08:12:23;14.80;95.60
30983;DHT22;17660;52.578;13.288;2023-05-16T08:14:50;14.80;95.60
30983;DHT22;17660;52.578;13.288;2023-05-16T08:17:16;14.70;95.90
30983;DHT22;17660;52.578;13.288;2023-05-16T08:19:43;14.80;95.90
30983;DHT22;17660;52.578;13.288;2023-05-16T08:22:10;14.90;95.80
30983;DHT22;17660;52.578;13.288;2023-05-16T08:24:36;14.90;95.50
30983;DHT22;17660;52.578;13.288;2023-05-16T08:27:03;14.80;95.40
30983;DHT22;17660;52.578;13.288;2023-05-16T08:29:30;14.80;95.70
30983;DHT22;17660;52.578;13.288;2023-05-16T08:31:57;14.60;95.30
30983;DHT22;17660;52.578;13.288;2023-05-16T08:34:24;14.70;95.60
30983;DHT22;17660;52.578;13.288;2023-05-16T08:36:50;14.70;95.70
30983;DHT22;17660;52.578;13.288;2023-05-16T08:39:17;14.50;95.50
30983;DHT22;17660;52.578;13.288;2023-05-16T08:41:43;14.30;95.80
30983;DHT22;17660;52.578;13.288;2023-05-16T08:44:10;14.40;95.30
30983;DHT22;17660;52.578;13.288;2023-05-16T08:46:38;14.50;95.60
30983;DHT22;17660;52.578;13.288;2023-05-16T08:49:07;14.50;95.90
30983;DHT22;17660;52.578;13.288;2023-05-16T08:51:34;14.60;95.60
30983;DHT22;17660;52.578;13.288;2023-05-16T08:54:03;14.50;96.00
30983;DHT22;17660;52.578;13.288;2023-05-16T08:56:32;14.60;95.30
30983;DHT22;17660;52.578;13.288;2023-05-16T08:58:59;14.80;95.30
30983;DHT22;17660;52.578;13.288;2023-05-16T09:01:26;14.80;94.80
30983;DHT22;17660;52.578;13.288;2023-05-16T09:03:53;14.80;95.00
30983;DHT22;17660;52.578;13.288;2023-05-16T09:06:20;14.70;95.30
30983;DHT22;17660;52.578;13.288;2023-05-16T09:08:47;14.80;95.40
30983;DHT22;17660;52.578;13.288;2023-05-16T09:11:15;15.00;94.90
30983;DHT22;17660;52.578;13.288;2023-05-16T09:13:41;15.00;94.80
30983;DHT22;17660;52.578;13.288;2023-05-16T09:16:09;15.00;94.50
30983;DHT22;17660;52.578;13.288;2023-05-16T09:18:36;15.20;94.70
30983;DHT22;17660;52.578;13.288;2023-05-16T09:21:03;15.10;94.00
30983;DHT22;17660;52.578;13.288;2023-05-16T09:23:30;15.20;94.30
30983;DHT22;17660;52.578;13.288;2023-05-16T09:25:59;15.30;93.80
30983;DHT22;17660;52.578;13.288;2023-05-16T09:28:26;15.60;93.50
30983;DHT22;17660;52.578;13.288;2023-05-16T09:30:53;15.80;93.30
30983;DHT22;17660;52.578;13.288;2023-05-16T09:33:21;15.80;92.90
30983;DHT22;17660;52.578;13.288;2023-05-16T09:35:58;15.70;92.50
30983;DHT22;17660;52.578;13.288;2023-05-16T09:38:25;15.80;92.90
30983;DHT22;17660;52.578;13.288;2023-05-16T09:40:53;15.70;92.50
30983;DHT22;17660;52.578;13.288;2023-05-16T09:43:21;15.50;92.90
30983;DHT22;17660;52.578;13.288;2023-05-16T09:45:48;15.30;92.80
30983;DHT22;17660;52.578;13.288;2023-05-16T09:48:15;15.40;93.00
30983;DHT22;17660;52.578;13.288;2023-05-16T09:50:50;15.40;92.90
30983;DHT22;17660;52.578;13.288;2023-05-16T09:53:28;15.20;94.00
30983;DHT22;17660;52.578;13.288;2023-05-16T09:55:59;15.20;93.60
30983;DHT22;17660;52.578;13.288;2023-05-16T09:58:30;15.20;93.50
30983;DHT22;17660;52.578;13.288;2023-05-16T10:00:57;15.30;93.50
30983;DHT22;17660;52.578;13.288;2023-05-16T10:03:24;15.30;93.70
30983;DHT22;17660;52.578;13.288;2023-05-16T10:05:52;15.40;93.70
30983;DHT22;17660;52.578;13.288;2023-05-16T10:08:19;15.50;93.50
30983;DHT22;17660;52.578;13.288;2023-05-16T10:10:48;15.30;93.10
30983;DHT22;17660;52.578;13.288;2023-05-16T10:13:16;15.20;93.80
30983;DHT22;17660;52.578;13.288;2023-05-16T10:15:43;15.20;94.00
30983;DHT22;17660;52.578;13.288;2023-05-16T10:18:11;15.20;93.90
30983;DHT22;17660;52.578;13.288;2023-05-16T10:20:40;15.20;93.70
30983;DHT22;17660;52.578;13.288;2023-05-16T10:23:08;15.20;93.80
30983;DHT22;17660;52.578;13.288;2023-05-16T10:25:38;15.40;93.70
30983;DHT22;17660;52.578;13.288;2023-05-16T10:28:09;15.30;93.90
30983;DHT22;17660;52.578;13.288;2023-05-16T10:30:36;15.10;94.20
30983;DHT22;17660;52.578;13.288;2023-05-16T10:33:05;15.10;94.50
30983;DHT22;17660;52.578;13.288;2023-05-16T10:35:33;15.10;94.50
30983;DHT22;17660;52.578;13.288;2023-05-16T10:38:00;15.20;93.90
30983;DHT22;17660;52.578;13.288;2023-05-16T10:40:27;15.20;93.40
30983;DHT22;17660;52.578;13.288;2023-05-16T10:42:55;15.30;93.60
30983;DHT22;17660;52.578;13.288;2023-05-16T10:45:22;15.20;93.30
30983;DHT22;17660;52.578;13.288;2023-05-16T10:47:55;15.00;93.00
30983;DHT22;17660;52.578;13.288;2023-05-16T10:50:32;14.90;93.50
30983;DHT22;17660;52.578;13.288;2023-05-16T10:53:12;15.00;93.60
30983;DHT22;17660;52.578;13.288;2023-05-16T10:55:39;15.10;93.80
30983;DHT22;17660;52.578;13.288;2023-05-16T10:58:06;15.30;93.50
30983;DHT22;17660;52.578;13.288;2023-05-16T11:00:33;15.60;92.40
30983;DHT22;17660;52.578;13.288;2023-05-16T11:03:03;15.70;92.30
30983;DHT22;17660;52.578;13.288;2023-05-16T11:05:32;15.90;92.10
30983;DHT22;17660;52.578;13.288;2023-05-16T11:08:05;16.20;91.60
30983;DHT22;17660;52.578;13.288;2023-05-16T11:10:32;16.40;91.40
30983;DHT22;17660;52.578;13.288;2023-05-16T11:13:03;16.80;91.00
30983;DHT22;17660;52.578;13.288;2023-05-16T11:15:32;16.50;90.60
30983;DHT22;17660;52.578;13.288;2023-05-16T11:18:04;16.50;90.90
30983;DHT22;17660;52.578;13.288;2023-05-16T11:20:33;16.50;90.70
30983;DHT22;17660;52.578;13.288;2023-05-16T11:25:45;16.50;91.00
30983;DHT22;17660;52.578;13.288;2023-05-16T11:28:14;16.60;90.30
30983;DHT22;17660;52.578;13.288;2023-05-16T11:30:50;17.00;88.70
30983;DHT22;17660;52.578;13.288;2023-05-16T11:33:18;16.90;88.70
30983;DHT22;17660;52.578;13.288;2023-05-16T11:38:41;16.20;88.40
30983;DHT22;17660;52.578;13.288;2023-05-16T11:41:09;16.40;90.20
30983;DHT22;17660;52.578;13.288;2023-05-16T11:43:36;16.50;89.80
30983;DHT22;17660;52.578;13.288;2023-05-16T11:46:03;16.60;88.50
30983;DHT22;17660;52.578;13.288;2023-05-16T11:48:30;16.60;87.70
30983;DHT22;17660;52.578;13.288;2023-05-16T11:51:02;16.50;87.50
30983;DHT22;17660;52.578;13.288;2023-05-16T11:53:29;16.60;87.60
30983;DHT22;17660;52.578;13.288;2023-05-16T11:55:56;16.70;87.80
30983;DHT22;17660;52.578;13.288;2023-05-16T11:58:25;16.80;87.40
30983;DHT22;17660;52.578;13.288;2023-05-16T12:00:52;16.90;86.40
30983;DHT22;17660;52.578;13.288;2023-05-16T12:03:19;17.10;87.30
30983;DHT22;17660;52.578;13.288;2023-05-16T12:05:53;17.30;85.50
30983;DHT22;17660;52.578;13.288;2023-05-16T12:08:20;17.50;85.40
30983;DHT22;17660;52.578;13.288;2023-05-16T12:10:51;17.60;85.00
30983;DHT22;17660;52.578;13.288;2023-05-16T12:13:19;17.90;85.10
30983;DHT22;17660;52.578;13.288;2023-05-16T12:15:46;18.60;84.90
30983;DHT22;17660;52.578;13.288;2023-05-16T12:18:13;19.20;82.10
30983;DHT22;17660;52.578;13.288;2023-05-16T12:20:44;19.60;81.00
30983;DHT22;17660;52.578;13.288;2023-05-16T12:23:11;19.90;78.20
30983;DHT22;17660;52.578;13.288;2023-05-16T12:25:39;19.80;79.40
30983;DHT22;17660;52.578;13.288;2023-05-16T12:28:12;19.80;76.50
30983;DHT22;17660;52.578;13.288;2023-05-16T12:30:42;19.40;78.10
30983;DHT22;17660;52.578;13.288;2023-05-16T12:33:10;19.00;76.20
30983;DHT22;17660;52.578;13.288;2023-05-16T12:35:38;18.70;78.50
30983;DHT22;17660;52.578;13.288;2023-05-16T12:38:06;18.40;76.20
30983;DHT22;17660;52.578;13.288;2023-05-16T12:40:37;18.20;78.70
30983;DHT22;17660;52.578;13.288;2023-05-16T12:43:20;18.60;78.90
30983;DHT22;17660;52.578;13.288;2023-05-16T12:45:52;19.00;77.40
30983;DHT22;17660;52.578;13.288;2023-05-16T12:48:20;19.00;73.30
30983;DHT22;17660;52.578;13.288;2023-05-16T12:50:47;18.80;73.60
30983;DHT22;17660;52.578;13.288;2023-05-16T12:53:14;19.00;74.70
30983;DHT22;17660;52.578;13.288;2023-05-16T12:55:42;19.20;74.90
30983;DHT22;17660;52.578;13.288;2023-05-16T12:58:09;19.60;73.80
30983;DHT22;17660;52.578;13.288;2023-05-16T13:00:36;19.90;72.20
30983;DHT22;17660;52.578;13.288;2023-05-16T13:03:04;19.80;72.80
30983;DHT22;17660;52.578;13.288;2023-05-16T13:05:32;19.80;70.80
30983;DHT22;17660;52.578;13.288;2023-05-16T13:07:58;19.80;71.30
30983;DHT22;17660;52.578;13.288;2023-05-16T13:10:25;19.70;71.40
30983;DHT22;17660;52.578;13.288;2023-05-16T13:12:52;19.50;70.50
30983;DHT22;17660;52.578;13.288;2023-05-16T13:15:19;19.40;72.10
30983;DHT22;17660;52.578;13.288;2023-05-16T13:17:46;19.30;73.80
30983;DHT22;17660;52.578;13.288;2023-05-16T13:20:14;19.80;72.60
30983;DHT22;17660;52.578;13.288;2023-05-16T13:22:41;20.20;70.00
30983;DHT22;17660;52.578;13.288;2023-05-16T13:25:08;20.10;69.20
30983;DHT22;17660;52.578;13.288;2023-05-16T13:27:36;20.10;70.60
30983;DHT22;17660;52.578;13.288;2023-05-16T13:30:03;20.50;69.80
30983;DHT22;17660;52.578;13.288;2023-05-16T13:32:30;20.80;68.70
30983;DHT22;17660;52.578;13.288;2023-05-16T13:34:56;20.80;69.00
30983;DHT22;17660;52.578;13.288;2023-05-16T13:37:23;20.90;68.80
30983;DHT22;17660;52.578;13.288;2023-05-16T13:39:50;20.90;67.00
30983;DHT22;17660;52.578;13.288;2023-05-16T13:42:17;20.90;67.80
30983;DHT22;17660;52.578;13.288;2023-05-16T13:44:44;20.60;66.00
30983;DHT22;17660;52.578;13.288;2023-05-16T13:47:11;20.50;64.70
30983;DHT22;17660;52.578;13.288;2023-05-16T13:49:38;20.40;66.80
30983;DHT22;17660;52.578;13.288;2023-05-16T13:52:05;20.50;65.90
30983;DHT22;17660;52.578;13.288;2023-05-16T13:54:32;20.60;65.30
30983;DHT22;17660;52.578;13.288;2023-05-16T13:56:59;20.40;65.80
30983;DHT22;17660;52.578;13.288;2023-05-16T13:59:26;20.20;66.90
30983;DHT22;17660;52.578;13.288;2023-05-16T14:02:12;20.00;67.80
30983;DHT22;17660;52.578;13.288;2023-05-16T14:04:39;20.00;66.80
30983;DHT22;17660;52.578;13.288;2023-05-16T14:07:06;20.00;65.00
30983;DHT22;17660;52.578;13.288;2023-05-16T14:09:33;20.20;65.60
30983;DHT22;17660;52.578;13.288;2023-05-16T14:12:00;20.20;67.50
30983;DHT22;17660;52.578;13.288;2023-05-16T14:14:29;20.30;65.40
30983;DHT22;17660;52.578;13.288;2023-05-16T14:16:57;20.40;64.10
30983;DHT22;17660;52.578;13.288;2023-05-16T14:19:24;20.40;64.30
30983;DHT22;17660;52.578;13.288;2023-05-16T14:21:51;20.40;64.00
30983;DHT22;17660;52.578;13.288;2023-05-16T14:24:18;20.30;62.90
30983;DHT22;17660;52.578;13.288;2023-05-16T14:26:44;20.20;63.60
30983;DHT22;17660;52.578;13.288;2023-05-16T14:29:11;20.10;64.00
30983;DHT22;17660;52.578;13.288;2023-05-16T14:31:39;20.00;63.30
30983;DHT22;17660;52.578;13.288;2023-05-16T14:34:06;19.70;64.70
30983;DHT22;17660;52.578;13.288;2023-05-16T14:36:33;19.60;66.10
30983;DHT22;17660;52.578;13.288;2023-05-16T14:39:00;19.30;65.80
30983;DHT22;17660;52.578;13.288;2023-05-16T14:41:27;19.20;64.30
30983;DHT22;17660;52.578;13.288;2023-05-16T14:43:54;19.10;63.90
30983;DHT22;17660;52.578;13.288;2023-05-16T14:46:21;19.10;63.60
30983;DHT22;17660;52.578;13.288;2023-05-16T14:48:48;19.10;66.60
30983;DHT22;17660;52.578;13.288;2023-05-16T14:51:15;19.10;63.60
30983;DHT22;17660;52.578;13.288;2023-05-16T14:53:42;19.20;63.50
30983;DHT22;17660;52.578;13.288;2023-05-16T14:56:12;19.40;63.40
30983;DHT22;17660;52.578;13.288;2023-05-16T14:58:38;19.80;64.30
30983;DHT22;17660;52.578;13.288;2023-05-16T15:01:05;20.00;61.70
30983;DHT22;17660;52.578;13.288;2023-05-16T15:03:32;20.20;64.10
30983;DHT22;17660;52.578;13.288;2023-05-16T15:06:12;20.10;61.90
30983;DHT22;17660;52.578;13.288;2023-05-16T15:08:39;20.20;61.10
30983;DHT22;17660;52.578;13.288;2023-05-16T15:11:05;20.60;63.10
30983;DHT22;17660;52.578;13.288;2023-05-16T15:13:32;20.80;60.60
30983;DHT22;17660;52.578;13.288;2023-05-16T15:15:59;21.20;57.60
30983;DHT22;17660;52.578;13.288;2023-05-16T15:18:26;21.40;54.70
30983;DHT22;17660;52.578;13.288;2023-05-16T15:20:52;21.70;56.50
30983;DHT22;17660;52.578;13.288;2023-05-16T15:23:19;22.20;56.50
30983;DHT22;17660;52.578;13.288;2023-05-16T15:25:46;22.70;53.90
30983;DHT22;17660;52.578;13.288;2023-05-16T15:28:12;23.30;54.50
30983;DHT22;17660;52.578;13.288;2023-05-16T15:30:39;24.20;52.70
30983;DHT22;17660;52.578;13.288;2023-05-16T15:33:06;25.10;49.60
30983;DHT22;17660;52.578;13.288;2023-05-16T15:35:33;25.70;49.20
30983;DHT22;17660;52.578;13.288;2023-05-16T15:38:00;25.60;47.50
30983;DHT22;17660;52.578;13.288;2023-05-16T15:40:26;25.70;47.30